Flight Track Log - Related Links

Times and Time Zones

All times are in EDT time to prevent confusion due to time zone crossing. See the LOG6843 flight status page for this flight to view local times or setup timezone preferences in your user account.

Time Position Orientation Groundspeed Altitude Reporting Facility
EDT Latitude Longitude Course Direction KTS MPH feet Rate Location/Type
Mon 03:56:59 AM 55.8804 -4.4193 45° Northeast 174 200 1,100  Level FlightAware UK
Mon 03:57:29 AM 55.8887 -4.4043 45° Northeast 104 120 1,600 917 Climbing FlightAware UK
Mon 03:58:11 AM 55.8981 -4.4229 288° West 130 150 2,200 800 Climbing FlightAware UK
Mon 03:58:29 AM 55.8972 -4.4395 265° West 174 200 2,400 833 Climbing FlightAware UK
Mon 03:58:47 AM 55.8970 -4.4574 269° West 174 200 2,700 1,000 Climbing FlightAware UK
Mon 03:59:05 AM 55.8970 -4.4752 270° West 174 200 3,000 667 Climbing FlightAware UK
Mon 03:59:23 AM 55.8971 -4.4955 270° West 174 200 3,100 500 Climbing FlightAware UK
Mon 03:59:41 AM 55.8968 -4.5156 268° West 174 200 3,300 667 Climbing FlightAware UK
Mon 03:59:59 AM 55.8951 -4.5361 261° West 174 200 3,500 833 Climbing FlightAware UK
Mon 04:00:17 AM 55.8938 -4.5558 264° West 174 200 3,800 778 Climbing FlightAware UK
Mon 04:00:53 AM 55.8901 -4.5959 261° West 174 200 4,200 667 Climbing FlightAware UK
Mon 04:01:11 AM 55.8854 -4.6142 246° West 174 200 4,400 667 Climbing FlightAware UK
Mon 04:01:29 AM 55.8772 -4.6287 225° Southwest 174 200 4,600 667 Climbing FlightAware UK
Mon 04:01:47 AM 55.8695 -4.6431 226° Southwest 174 200 4,800 667 Climbing FlightAware UK
Mon 04:02:05 AM 55.8624 -4.6598 233° Southwest 174 200 5,000 500 Climbing FlightAware UK
Mon 04:02:23 AM 55.8546 -4.6752 228° Southwest 174 200 5,100 500 Climbing FlightAware UK
Mon 04:02:41 AM 55.8469 -4.6923 231° Southwest 174 200 5,300 500 Climbing FlightAware UK
Mon 04:02:59 AM 55.8389 -4.7093 230° Southwest 174 200 5,400 500 Climbing FlightAware UK
Mon 04:03:17 AM 55.8315 -4.7274 234° Southwest 174 200 5,600 500 Climbing FlightAware UK
Mon 04:03:35 AM 55.8250 -4.7462 238° Southwest 174 200 5,700 333 Climbing FlightAware UK
Mon 04:03:53 AM 55.8177 -4.7643 234° Southwest 174 200 5,800 333 Climbing FlightAware UK
Mon 04:04:11 AM 55.8100 -4.7818 232° Southwest 174 200 5,900 333 Climbing FlightAware UK
Mon 04:04:29 AM 55.8016 -4.7994 230° Southwest 174 200 6,000 333 Climbing FlightAware UK
Mon 04:04:47 AM 55.7930 -4.8167 228° Southwest 174 200 6,100  Climbing FlightAware UK
Mon 04:05:05 AM 55.7840 -4.8345 228° Southwest 174 200 6,000  Descending FlightAware UK
Mon 04:05:35 AM 55.7704 -4.8673 234° Southwest 209 241 6,100 125 Climbing FlightAware UK
Mon 04:05:53 AM 55.7634 -4.8886 240° Southwest 174 200 6,100 -167 Level FlightAware UK
Mon 04:06:11 AM 55.7557 -4.9098 237° Southwest 174 200 6,000  Descending FlightAware UK
Mon 04:06:29 AM 55.7472 -4.9290 232° Southwest 174 200 6,100  Climbing FlightAware UK
Mon 04:06:47 AM 55.7386 -4.9477 230° Southwest 174 200 6,000 -167 Descending FlightAware UK
Mon 04:07:05 AM 55.7295 -4.9658 228° Southwest 174 200 6,000  Level FlightAware UK
Mon 04:07:23 AM 55.7211 -4.9854 233° Southwest 174 200 6,000  Level FlightAware UK
Mon 04:07:41 AM 55.7138 -5.0062 238° Southwest 174 200 6,000 -333 Level FlightAware UK
Mon 04:07:59 AM 55.7063 -5.0272 238° Southwest 174 200 5,800 -167 Descending FlightAware UK
Mon 04:08:17 AM 55.6988 -5.0484 238° Southwest 174 200 5,900 167 Climbing FlightAware UK
Mon 04:08:35 AM 55.6912 -5.0693 237° Southwest 174 200 5,900  Level FlightAware UK
Mon 04:08:53 AM 55.6832 -5.0891 234° Southwest 174 200 5,900 167 Level FlightAware UK
Mon 04:09:11 AM 55.6740 -5.1070 228° Southwest 174 200 6,000  Climbing FlightAware UK
Mon 04:09:29 AM 55.6648 -5.1253 229° Southwest 174 200 5,900  Descending FlightAware UK
Mon 04:09:47 AM 55.6561 -5.1444 231° Southwest 174 200 6,000 167 Climbing FlightAware UK
Mon 04:10:05 AM 55.6472 -5.1638 231° Southwest 174 200 6,000  Level FlightAware UK
Mon 04:10:23 AM 55.6390 -5.1833 233° Southwest 174 200 6,000  Level FlightAware UK
Mon 04:10:41 AM 55.6314 -5.2038 237° Southwest 174 200 6,000  Level FlightAware UK
Mon 04:10:59 AM 55.6242 -5.2252 239° Southwest 174 200 6,000  Level FlightAware UK
Mon 04:11:17 AM 55.6165 -5.2461 237° Southwest 174 200 6,000 -167 Level FlightAware UK
Mon 04:11:35 AM 55.6089 -5.2672 238° Southwest 174 200 5,900 -333 Descending FlightAware UK
Mon 04:11:53 AM 55.6006 -5.2879 235° Southwest 174 200 5,800  Descending FlightAware UK
Mon 04:12:11 AM 55.5915 -5.3087 232° Southwest 174 200 5,900  Climbing FlightAware UK
Mon 04:12:29 AM 55.5833 -5.3314 237° Southwest 174 200 5,800 -167 Descending FlightAware UK
Mon 04:12:47 AM 55.5773 -5.3552 246° West 174 200 5,800 -500 Level FlightAware UK
Mon 04:13:05 AM 55.5743 -5.3807 258° West 174 200 5,500 -667 Descending FlightAware UK
Mon 04:13:23 AM 55.5704 -5.4074 256° West 174 200 5,400 -500 Descending FlightAware UK
Mon 04:13:41 AM 55.5745 -5.4341 285° West 174 200 5,200 -667 Descending FlightAware UK
Mon 04:13:59 AM 55.5832 -5.4571 304° West 174 200 5,000 -667 Descending FlightAware UK
Mon 04:14:17 AM 55.5914 -5.4798 303° West 174 200 4,800 -500 Descending FlightAware UK
Mon 04:14:35 AM 55.6003 -5.5021 305° West 174 200 4,700 -500 Descending FlightAware UK
Mon 04:14:53 AM 55.6105 -5.5225 312° West 174 200 4,500 -571 Descending FlightAware UK
Mon 04:15:17 AM 55.6235 -5.5501 310° West 130 150 4,300 -500 Descending FlightAware UK
Mon 04:15:53 AM 55.6373 -5.5993 296° West 174 200 4,000 -333 Descending FlightAware UK
Mon 04:16:11 AM 55.6368 -5.6273 268° West 174 200 4,000 -143 Level FlightAware UK
Mon 04:16:35 AM 55.6326 -5.6632 258° West 130 150 3,900  Descending FlightAware UK
Mon 04:16:53 AM 55.6311 -5.6883 264° West 174 200 4,000 167 Climbing FlightAware UK
Mon 04:17:11 AM 55.6294 -5.7139 264° West 174 200 4,000  Level FlightAware UK
Mon 04:17:29 AM 55.6285 -5.7386 266° West 174 200 4,000  Level FlightAware UK
Mon 04:17:53 AM 55.6237 -5.7703 255° West 130 150 4,000  Level FlightAware UK
Mon 04:18:29 AM 55.6033 -5.7992 219° Southwest 174 200 4,000  Level FlightAware UK
Mon 04:18:47 AM 55.5943 -5.8180 230° Southwest 174 200 4,000  Level FlightAware UK
Mon 04:19:05 AM 55.5866 -5.8398 238° Southwest 174 200 4,000  Level FlightAware UK
Mon 04:19:23 AM 55.5790 -5.8616 239° Southwest 174 200 4,000  Level FlightAware UK
Mon 04:19:41 AM 55.5718 -5.8815 237° Southwest 174 200 4,000 -833 Level FlightAware UK
Mon 04:19:59 AM 55.5639 -5.9022 236° Southwest 174 200 3,500 -833 Descending FlightAware UK
Mon 04:20:17 AM 55.5533 -5.9201 224° Southwest 174 200 3,500 -500 Level FlightAware UK
Mon 04:20:35 AM 55.5424 -5.9361 220° Southwest 174 200 3,200 -1,167 Descending FlightAware UK
Mon 04:20:53 AM 55.5304 -5.9513 216° Southwest 174 200 2,800 -1,000 Descending FlightAware UK
Mon 04:21:11 AM 55.5177 -5.9638 209° Southwest 174 200 2,600 -667 Descending FlightAware UK
Mon 04:21:29 AM 55.5046 -5.9756 207° Southwest 174 200 2,400 -833 Descending FlightAware UK
Mon 04:21:47 AM 55.4911 -5.9674 161° South 174 200 2,100 -667 Descending FlightAware UK
Mon 04:22:05 AM 55.4832 -5.9511 131° Southeast 174 200 2,000  Descending FlightAware UK
Mon 04:22:29 AM 55.4800 -5.9256 102° East 130 150 2,100 143 Climbing FlightAware UK
Mon 04:22:47 AM 55.4769 -5.9072 106° East 174 200 2,100 -167 Level FlightAware UK
Mon 04:23:05 AM 55.4739 -5.8896 107° East 174 200 2,000  Descending FlightAware UK
Mon 04:23:23 AM 55.4707 -5.8731 108° East 174 200 2,100 167 Climbing FlightAware UK
Mon 04:23:41 AM 55.4686 -5.8546 102° East 174 200 2,100 -667 Level FlightAware UK
Mon 04:23:59 AM 55.4657 -5.8372 106° East 174 200 1,700 -1,333 Descending FlightAware UK
Mon 04:25:00 AM 55.4582 -5.7972 108° East  Level Estimated
Mon 04:32:00 AM 55.4372 -5.6864 108° East  Level Estimated
Mon 04:33:00 AM 55.4372 -5.6864 North  Level Estimated
Mon 04:34:00 AM 55.4372 -5.6864 North  Level Estimated
Mon 04:35:00 AM 55.4372 -5.6864 North  Level Estimated
Mon 04:36:00 AM 55.4372 -5.6864 North  Level Estimated
Mon 04:37:00 AM 55.4372 -5.6864 North  Level Estimated
Mon 04:38:00 AM 55.4372 -5.6864 North  Level Estimated
Mon 04:39:00 AM 55.4372 -5.6864 North  Level Estimated
Mon 04:40:00 AM 55.4372 -5.6864 North  Level Estimated
Mon 04:41:00 AM 55.4372 -5.6864 North  Level Estimated
Mon 04:42:00 AM 55.4372 -5.6864 North  Level Estimated
Mon 04:43:00 AM 55.4372 -5.6864 North  Level Estimated
Mon 04:44:00 AM 55.4372 -5.6864 North  Level Estimated
Mon 04:45:00 AM 55.4372 -5.6864 North  Level Estimated
Mon 04:46:00 AM 55.4372 -5.6864 North  Level Estimated
Mon 04:47:00 AM 55.4372 -5.6864 North  Level Estimated

Login

Don't have an account? Register now (free) for customized features, flight alerts, and more!